createdAt,value
2023-04-19T00:00:59.307Z,97.40
2023-04-19T00:03:03.143Z,97.30
2023-04-19T00:05:06.482Z,97.50
2023-04-19T00:07:08.727Z,97.50
2023-04-19T00:09:11.010Z,97.60
2023-04-19T00:11:13.200Z,97.50
2023-04-19T00:13:15.531Z,97.60
2023-04-19T00:15:17.678Z,97.60
2023-04-19T00:17:21.164Z,97.60
2023-04-19T00:19:24.609Z,97.70
2023-04-19T00:21:26.813Z,97.70
2023-04-19T00:23:28.817Z,97.70
2023-04-19T00:25:32.182Z,97.70
2023-04-19T00:27:34.358Z,98.00
2023-04-19T00:29:39.705Z,97.70
2023-04-19T00:31:41.778Z,97.60
2023-04-19T00:33:43.890Z,97.70
2023-04-19T00:35:47.873Z,97.70
2023-04-19T00:37:50.017Z,97.70
2023-04-19T00:39:52.096Z,97.80
2023-04-19T00:41:54.281Z,97.80
2023-04-19T00:44:01.628Z,97.90
2023-04-19T00:46:03.773Z,98.00
2023-04-19T00:48:06.537Z,98.00
2023-04-19T00:50:10.102Z,98.10
2023-04-19T00:52:14.106Z,98.10
2023-04-19T00:54:16.979Z,98.20
2023-04-19T00:56:21.886Z,98.30
2023-04-19T00:58:23.959Z,98.20
2023-04-19T01:00:26.146Z,98.30
2023-04-19T01:02:31.325Z,98.30
2023-04-19T01:04:33.756Z,98.40
2023-04-19T01:06:37.011Z,98.30
2023-04-19T01:08:40.880Z,98.30
2023-04-19T01:10:42.832Z,98.30
2023-04-19T01:12:44.785Z,98.30
2023-04-19T01:14:47.328Z,98.40
2023-04-19T01:16:50.693Z,98.40
2023-04-19T01:18:53.042Z,98.50
2023-04-19T01:20:55.258Z,98.40
2023-04-19T01:23:00.455Z,98.50
2023-04-19T01:25:02.673Z,98.50
2023-04-19T01:27:05.060Z,98.50
2023-04-19T01:29:07.178Z,98.60
2023-04-19T01:31:09.239Z,98.60
2023-04-19T01:33:11.278Z,98.70
2023-04-19T01:35:13.331Z,98.70
2023-04-19T01:37:15.322Z,98.70
2023-04-19T01:39:18.751Z,98.70
2023-04-19T01:41:22.718Z,98.80
2023-04-19T01:43:24.907Z,98.80
2023-04-19T01:45:27.165Z,98.80
2023-04-19T01:47:29.176Z,98.80
2023-04-19T01:49:31.133Z,98.80
2023-04-19T01:51:34.152Z,98.90
2023-04-19T01:53:36.507Z,99.00
2023-04-19T01:55:39.845Z,99.10
2023-04-19T01:57:41.761Z,98.90
2023-04-19T01:59:43.800Z,99.00
2023-04-19T02:01:46.303Z,99.00
2023-04-19T02:03:48.774Z,99.10
2023-04-19T02:05:50.870Z,99.30
2023-04-19T02:07:52.849Z,99.00
2023-04-19T02:09:54.897Z,99.10
2023-04-19T02:11:58.368Z,99.30
2023-04-19T02:14:00.351Z,99.20
2023-04-19T02:16:03.250Z,99.10
2023-04-19T02:18:07.003Z,99.20
2023-04-19T02:20:10.857Z,99.20
2023-04-19T02:22:12.822Z,99.20
2023-04-19T02:24:15.116Z,99.30
2023-04-19T02:26:17.407Z,99.40
2023-04-19T02:28:21.213Z,99.40
2023-04-19T02:30:23.302Z,99.50
2023-04-19T02:32:25.253Z,99.50
2023-04-19T02:34:28.179Z,99.50
2023-04-19T02:36:30.812Z,99.30
2023-04-19T02:38:32.756Z,99.40
2023-04-19T02:40:34.823Z,99.40
2023-04-19T02:42:37.276Z,99.40
2023-04-19T02:44:40.573Z,99.50
2023-04-19T02:46:48.809Z,99.40
2023-04-19T02:48:50.726Z,99.50
2023-04-19T02:50:52.910Z,99.50
2023-04-19T02:52:54.925Z,99.60
2023-04-19T02:54:57.164Z,99.60
2023-04-19T02:56:59.261Z,99.70
2023-04-19T02:59:01.953Z,99.60
2023-04-19T03:01:05.902Z,99.70
2023-04-19T03:03:09.787Z,99.50
2023-04-19T03:05:12.064Z,99.50
2023-04-19T03:07:14.310Z,99.50
2023-04-19T03:09:16.456Z,99.50
2023-04-19T03:11:18.753Z,99.80
2023-04-19T03:13:20.821Z,99.80
2023-04-19T03:15:23.008Z,99.50
2023-04-19T03:17:26.427Z,99.50
2023-04-19T03:19:28.687Z,99.50
2023-04-19T03:21:31.632Z,99.70
2023-04-19T03:23:33.574Z,99.70
2023-04-19T03:25:38.769Z,99.70
2023-04-19T03:27:40.789Z,99.60
2023-04-19T03:29:48.343Z,99.70
2023-04-19T03:31:50.850Z,99.80
2023-04-19T03:33:54.279Z,99.60
2023-04-19T03:35:56.299Z,99.70
2023-04-19T03:37:58.623Z,99.90
2023-04-19T03:40:00.871Z,99.90
2023-04-19T03:42:03.031Z,99.90
2023-04-19T03:44:05.538Z,99.90
2023-04-19T03:46:08.736Z,99.80
2023-04-19T03:48:10.715Z,99.90
2023-04-19T03:50:14.078Z,99.90
2023-04-19T03:52:16.089Z,99.90
2023-04-19T03:54:18.182Z,99.90
2023-04-19T03:56:20.643Z,99.90
2023-04-19T03:58:22.814Z,99.90
2023-04-19T04:00:24.880Z,99.90
2023-04-19T04:02:27.045Z,99.90
2023-04-19T04:04:29.289Z,99.90
2023-04-19T04:06:32.801Z,99.90
2023-04-19T04:08:34.764Z,99.90
2023-04-19T04:10:36.913Z,99.90
2023-04-19T04:12:38.825Z,99.90
2023-04-19T04:14:40.920Z,99.90
2023-04-19T04:16:42.923Z,99.90
2023-04-19T04:18:45.588Z,99.90
2023-04-19T04:20:48.142Z,99.90
2023-04-19T04:22:52.656Z,99.90
2023-04-19T04:24:54.791Z,99.90
2023-04-19T04:26:58.831Z,99.90
2023-04-19T04:29:03.803Z,99.90
2023-04-19T04:31:06.193Z,99.90
2023-04-19T04:33:08.614Z,99.90
2023-04-19T04:35:11.381Z,99.90
2023-04-19T04:37:13.598Z,99.90
2023-04-19T04:39:18.430Z,99.90
2023-04-19T04:41:22.663Z,99.90
2023-04-19T04:43:28.964Z,99.90
2023-04-19T04:45:32.346Z,99.90
2023-04-19T04:47:34.873Z,99.90
2023-04-19T04:49:37.488Z,99.90
2023-04-19T04:51:39.453Z,99.90
2023-04-19T04:53:41.441Z,99.90
2023-04-19T04:55:45.117Z,99.90
2023-04-19T04:57:47.180Z,99.90
2023-04-19T04:59:49.199Z,99.90
2023-04-19T05:01:51.457Z,99.90
2023-04-19T05:03:53.480Z,99.90
2023-04-19T05:05:58.359Z,99.90
2023-04-19T05:08:01.121Z,99.90
2023-04-19T05:10:03.164Z,99.90
2023-04-19T05:12:07.222Z,99.90
2023-04-19T05:14:09.790Z,99.90
2023-04-19T05:16:12.036Z,99.90
2023-04-19T05:18:14.158Z,99.90
2023-04-19T05:20:16.634Z,99.90
2023-04-19T05:22:18.668Z,99.90
2023-04-19T05:24:20.598Z,99.90
2023-04-19T05:26:23.675Z,99.90
2023-04-19T05:28:27.042Z,99.90
2023-04-19T05:30:29.176Z,99.90
2023-04-19T05:32:31.538Z,99.90
2023-04-19T05:34:33.798Z,99.90
2023-04-19T05:36:35.869Z,99.90
2023-04-19T05:38:37.841Z,99.90
2023-04-19T05:40:40.285Z,99.90
2023-04-19T05:42:42.585Z,99.90
2023-04-19T05:44:45.988Z,99.90
2023-04-19T05:46:48.710Z,99.90
2023-04-19T05:48:50.673Z,99.90
2023-04-19T05:50:58.023Z,99.90
2023-04-19T05:52:59.998Z,99.90
2023-04-19T05:55:01.961Z,99.90
2023-04-19T05:57:04.336Z,99.90
2023-04-19T05:59:06.949Z,99.90
2023-04-19T06:01:10.724Z,99.90
2023-04-19T06:03:12.938Z,99.90
2023-04-19T06:05:15.272Z,99.90
2023-04-19T06:07:31.009Z,99.90
2023-04-19T06:09:35.593Z,99.90
2023-04-19T06:11:46.838Z,99.90
2023-04-19T06:13:51.386Z,99.90
2023-04-19T06:15:53.508Z,99.90
2023-04-19T06:17:59.225Z,99.90
2023-04-19T06:20:02.109Z,99.90
2023-04-19T06:22:04.449Z,99.90
2023-04-19T06:24:07.332Z,99.90
2023-04-19T06:26:09.387Z,99.90
2023-04-19T06:28:11.512Z,99.90
2023-04-19T06:30:13.899Z,99.90
2023-04-19T06:32:16.501Z,99.90
2023-04-19T06:34:20.138Z,99.90
2023-04-19T06:36:22.116Z,99.90
2023-04-19T06:38:24.194Z,99.90
2023-04-19T06:40:28.994Z,99.90
2023-04-19T06:42:30.993Z,99.90
2023-04-19T06:44:33.106Z,99.90
2023-04-19T06:46:35.374Z,99.90
2023-04-19T06:48:37.719Z,99.90
2023-04-19T06:50:41.086Z,99.90
2023-04-19T06:52:43.256Z,99.90
2023-04-19T06:54:48.012Z,99.90
2023-04-19T06:56:50.553Z,99.90
2023-04-19T06:58:52.811Z,99.90
2023-04-19T07:00:55.361Z,99.80
2023-04-19T07:02:59.784Z,99.80
2023-04-19T07:05:02.162Z,99.70
2023-04-19T07:07:05.763Z,99.60
2023-04-19T07:09:08.598Z,99.50
2023-04-19T07:11:10.756Z,99.50
2023-04-19T07:13:12.862Z,99.40
2023-04-19T07:15:15.348Z,99.10
2023-04-19T07:17:18.386Z,99.10
2023-04-19T07:19:21.034Z,98.70
2023-04-19T07:21:24.781Z,98.60
2023-04-19T07:23:28.168Z,98.70
2023-04-19T07:25:30.342Z,99.00
2023-04-19T07:27:32.355Z,98.80
2023-04-19T07:29:35.794Z,99.10
2023-04-19T07:31:38.229Z,98.20
2023-04-19T07:33:40.504Z,97.70
2023-04-19T07:35:42.573Z,97.00
2023-04-19T07:37:44.857Z,96.50
2023-04-19T07:39:48.225Z,96.40
2023-04-19T07:41:50.278Z,95.50
2023-04-19T07:43:52.387Z,95.40
2023-04-19T07:45:54.556Z,94.70
2023-04-19T07:47:56.650Z,94.40
2023-04-19T07:50:08.810Z,94.70
2023-04-19T07:52:10.878Z,94.20
2023-04-19T07:54:13.045Z,94.10
2023-04-19T07:56:16.884Z,94.10
2023-04-19T07:58:18.994Z,94.00
2023-04-19T08:00:24.234Z,93.20
2023-04-19T08:02:27.976Z,93.40
2023-04-19T08:04:30.588Z,93.90
2023-04-19T08:06:33.094Z,94.20
2023-04-19T08:08:35.732Z,93.60
2023-04-19T08:10:38.021Z,93.50
2023-04-19T08:12:50.708Z,93.50
2023-04-19T08:15:15.336Z,94.00
2023-04-19T08:17:30.403Z,93.90
2023-04-19T08:19:39.463Z,93.60
2023-04-19T08:21:41.877Z,94.00
2023-04-19T08:23:48.262Z,93.60
2023-04-19T08:25:51.094Z,93.10
2023-04-19T08:27:54.613Z,92.40
2023-04-19T08:29:56.607Z,92.40
2023-04-19T08:31:58.956Z,92.70
2023-04-19T08:34:02.711Z,92.40
2023-04-19T08:36:05.293Z,92.70
2023-04-19T08:38:07.430Z,93.00
2023-04-19T08:40:11.307Z,93.10
2023-04-19T08:44:35.526Z,93.30
2023-04-19T08:46:38.319Z,93.20
2023-04-19T08:48:41.415Z,93.20
2023-04-19T08:51:00.546Z,93.20
2023-04-19T08:53:24.078Z,93.30
2023-04-19T08:55:29.479Z,93.00
2023-04-19T08:57:32.429Z,93.20
2023-04-19T08:59:36.536Z,93.10
2023-04-19T09:01:38.601Z,93.00
2023-04-19T09:03:56.037Z,93.50
2023-04-19T09:06:03.586Z,93.00
2023-04-19T09:08:22.826Z,93.20
2023-04-19T09:10:28.901Z,93.10
2023-04-19T09:12:31.302Z,93.00
2023-04-19T09:14:33.330Z,93.20
2023-04-19T09:16:38.144Z,93.20
2023-04-19T09:19:00.365Z,93.10
2023-04-19T09:21:28.161Z,93.20
2023-04-19T09:23:30.531Z,93.10
2023-04-19T09:25:49.355Z,93.20
2023-04-19T09:27:54.789Z,92.90
2023-04-19T09:29:58.286Z,92.90
2023-04-19T09:32:01.597Z,92.90
2023-04-19T09:34:18.009Z,93.20
2023-04-19T09:36:30.806Z,93.00
2023-04-19T09:38:46.879Z,92.30
2023-04-19T09:40:50.314Z,92.70
2023-04-19T09:47:22.740Z,92.40
2023-04-19T09:49:41.252Z,92.40
2023-04-19T09:51:48.084Z,92.70
2023-04-19T09:53:50.910Z,92.60
2023-04-19T09:56:01.463Z,92.60
2023-04-19T09:58:06.064Z,92.60
2023-04-19T10:00:13.256Z,92.40
2023-04-19T10:02:17.642Z,92.30
2023-04-19T10:04:37.747Z,92.70
2023-04-19T10:07:07.001Z,92.60
2023-04-19T10:09:08.744Z,92.60
2023-04-19T10:11:13.385Z,92.40
2023-04-19T10:13:25.734Z,92.60
2023-04-19T10:15:39.746Z,92.40
2023-04-19T10:17:53.490Z,92.50
2023-04-19T10:20:01.521Z,92.00
2023-04-19T10:22:06.993Z,91.80
2023-04-19T10:24:10.020Z,91.60
2023-04-19T10:26:12.165Z,91.60
2023-04-19T10:28:18.057Z,91.80
2023-04-19T10:30:21.049Z,91.60
2023-04-19T10:32:24.776Z,92.10
2023-04-19T10:34:39.926Z,92.00
2023-04-19T10:36:44.131Z,91.60
2023-04-19T10:38:48.542Z,92.00
2023-04-19T10:41:00.285Z,91.60
2023-04-19T10:43:17.971Z,91.40
2023-04-19T10:45:32.695Z,91.70
2023-04-19T10:47:44.854Z,91.70
2023-04-19T10:49:50.813Z,91.60
2023-04-19T10:51:54.789Z,91.70
2023-04-19T10:53:58.779Z,91.10
2023-04-19T10:56:00.919Z,91.20
2023-04-19T10:58:04.357Z,91.20
2023-04-19T11:00:20.887Z,90.80
2023-04-19T11:02:30.672Z,90.80
2023-04-19T11:05:00.810Z,90.40
2023-04-19T11:07:04.973Z,90.50
2023-04-19T11:09:10.040Z,89.90
2023-04-19T11:11:11.968Z,89.60
2023-04-19T11:13:14.034Z,90.00
2023-04-19T11:15:16.041Z,90.10
2023-04-19T11:17:19.647Z,90.10
2023-04-19T11:19:21.749Z,89.10
2023-04-19T11:21:25.453Z,90.00
2023-04-19T11:23:28.336Z,88.50
2023-04-19T11:25:31.567Z,89.30
2023-04-19T11:27:34.020Z,90.20
2023-04-19T11:29:36.281Z,90.30
2023-04-19T11:31:38.900Z,90.00
2023-04-19T11:33:43.816Z,90.30
2023-04-19T11:35:45.865Z,88.70
2023-04-19T11:37:49.619Z,87.10
2023-04-19T11:39:51.653Z,87.80
2023-04-19T11:41:54.060Z,88.10
2023-04-19T11:43:56.129Z,88.70
2023-04-19T11:46:05.986Z,89.00
2023-04-19T11:48:17.340Z,87.80
2023-04-19T11:50:37.121Z,87.70
2023-04-19T11:52:39.322Z,88.30
2023-04-19T11:54:42.673Z,87.80
2023-04-19T11:57:02.005Z,88.10
2023-04-19T11:59:04.070Z,88.00
2023-04-19T12:01:09.391Z,86.40
2023-04-19T12:03:11.703Z,86.70
2023-04-19T12:05:15.875Z,86.30
2023-04-19T12:07:18.112Z,86.50
2023-04-19T12:09:24.155Z,86.20
2023-04-19T12:11:43.315Z,86.20
2023-04-19T12:13:45.579Z,85.50
2023-04-19T12:15:49.111Z,86.60
2023-04-19T12:17:58.985Z,86.50
2023-04-19T12:20:01.027Z,85.20
2023-04-19T12:22:13.311Z,85.20
2023-04-19T12:24:16.242Z,85.20
2023-04-19T12:26:18.338Z,85.50
2023-04-19T12:28:25.488Z,85.80
2023-04-19T12:30:27.551Z,85.20
2023-04-19T12:32:29.556Z,85.20
2023-04-19T12:34:31.638Z,85.70
2023-04-19T12:36:33.670Z,86.70
2023-04-19T12:38:35.776Z,86.70
2023-04-19T12:40:37.876Z,85.70
2023-04-19T12:42:39.989Z,84.80
2023-04-19T12:44:43.396Z,85.30
2023-04-19T12:46:45.585Z,86.00
2023-04-19T12:48:47.851Z,85.40
2023-04-19T12:50:49.928Z,85.00
2023-04-19T12:52:53.627Z,85.10
2023-04-19T12:54:55.611Z,85.50
2023-04-19T12:56:57.968Z,85.20
2023-04-19T12:58:59.917Z,85.30
2023-04-19T13:01:03.404Z,85.30
2023-04-19T13:03:05.742Z,85.20
2023-04-19T13:05:08.603Z,84.90
2023-04-19T13:07:10.622Z,84.90
2023-04-19T13:09:14.892Z,84.90
2023-04-19T13:11:22.773Z,84.50
2023-04-19T13:13:25.129Z,84.40
2023-04-19T13:15:28.592Z,84.20
2023-04-19T13:17:32.429Z,83.70
2023-04-19T13:19:34.549Z,83.20
2023-04-19T13:21:36.760Z,83.40
2023-04-19T13:23:38.772Z,83.90
2023-04-19T13:25:40.787Z,84.10
2023-04-19T13:27:42.885Z,84.20
2023-04-19T13:29:45.014Z,83.90
2023-04-19T13:31:47.365Z,83.20
2023-04-19T13:33:50.796Z,83.30
2023-04-19T13:35:52.808Z,83.30
2023-04-19T13:37:54.865Z,83.50
2023-04-19T13:40:14.905Z,83.00
2023-04-19T13:42:20.380Z,82.90
2023-04-19T13:44:22.513Z,82.40
2023-04-19T13:46:24.879Z,82.90
2023-04-19T13:48:28.872Z,82.50
2023-04-19T13:50:34.100Z,82.50
2023-04-19T13:52:36.425Z,83.10
2023-04-19T13:54:38.666Z,83.00
2023-04-19T13:56:40.840Z,82.80
2023-04-19T13:58:43.018Z,82.50
2023-04-19T14:00:45.136Z,82.40
2023-04-19T14:02:48.934Z,82.30
2023-04-19T14:04:52.951Z,82.20
2023-04-19T14:06:56.551Z,82.60
2023-04-19T14:08:58.746Z,81.90
2023-04-19T14:11:03.819Z,81.40
2023-04-19T14:13:06.589Z,82.00
2023-04-19T14:15:09.547Z,82.80
2023-04-19T14:17:11.934Z,82.40
2023-04-19T14:19:13.992Z,82.40
2023-04-19T14:21:16.140Z,82.60
2023-04-19T14:23:19.841Z,83.00
2023-04-19T14:25:21.876Z,82.40
2023-04-19T14:27:24.251Z,81.80
2023-04-19T14:29:27.052Z,82.10
2023-04-19T14:31:29.751Z,82.50
2023-04-19T14:33:31.905Z,82.40
2023-04-19T14:35:34.315Z,81.90
2023-04-19T14:37:36.406Z,81.80
2023-04-19T14:39:39.822Z,82.10
2023-04-19T14:41:42.222Z,81.10
2023-04-19T14:43:44.146Z,82.00
2023-04-19T14:45:48.488Z,81.10
2023-04-19T14:47:50.534Z,81.10
2023-04-19T14:49:53.008Z,80.90
2023-04-19T14:51:55.366Z,80.60
2023-04-19T14:53:58.162Z,80.90
2023-04-19T14:56:03.563Z,80.40
2023-04-19T14:58:05.775Z,80.50
2023-04-19T15:00:09.052Z,80.90
2023-04-19T15:02:13.253Z,81.10
2023-04-19T15:04:16.484Z,81.10
2023-04-19T15:06:18.768Z,81.10
2023-04-19T15:08:30.057Z,80.70
2023-04-19T15:10:38.296Z,80.50
2023-04-19T15:12:42.079Z,80.80
2023-04-19T15:14:44.156Z,81.00
2023-04-19T15:16:46.636Z,80.50
2023-04-19T15:18:48.998Z,81.20
2023-04-19T15:20:51.260Z,80.70
2023-04-19T15:22:53.417Z,80.60
2023-04-19T15:24:55.521Z,81.00
2023-04-19T15:26:58.802Z,81.10
2023-04-19T15:29:02.196Z,80.00
2023-04-19T15:31:06.035Z,80.30
2023-04-19T15:33:09.129Z,80.50
2023-04-19T15:35:11.429Z,81.30
2023-04-19T15:37:13.436Z,82.30
2023-04-19T15:39:15.608Z,81.70
2023-04-19T15:41:19.345Z,82.30
2023-04-19T15:43:21.934Z,82.00
2023-04-19T15:45:25.572Z,81.80
2023-04-19T15:47:28.199Z,81.20
2023-04-19T15:49:30.597Z,81.40
2023-04-19T15:51:33.237Z,81.10
2023-04-19T15:53:36.072Z,81.60
2023-04-19T15:55:39.027Z,80.90
2023-04-19T15:57:41.172Z,80.50
2023-04-19T15:59:43.277Z,80.10
2023-04-19T16:01:46.762Z,79.70
2023-04-19T16:03:48.981Z,79.50
2023-04-19T16:05:51.676Z,78.80
2023-04-19T16:08:02.673Z,78.70
2023-04-19T16:10:07.512Z,79.20
2023-04-19T16:12:09.578Z,79.10
2023-04-19T16:14:11.752Z,79.40
2023-04-19T16:16:13.735Z,79.10
2023-04-19T16:18:17.173Z,79.70
2023-04-19T16:20:20.502Z,79.00
2023-04-19T16:22:22.587Z,79.10
2023-04-19T16:24:24.644Z,79.50
2023-04-19T16:26:27.205Z,79.90
2023-04-19T16:28:29.553Z,79.80
2023-04-19T16:30:31.511Z,80.20
2023-04-19T16:32:33.685Z,80.30
2023-04-19T16:34:37.059Z,80.00
2023-04-19T16:36:39.159Z,80.50
2023-04-19T16:38:41.235Z,80.10
2023-04-19T16:40:46.153Z,80.60
2023-04-19T16:42:49.273Z,80.70
2023-04-19T16:44:51.415Z,80.80
2023-04-19T16:46:53.444Z,80.50
2023-04-19T16:48:55.979Z,80.40
2023-04-19T16:50:59.293Z,81.00
2023-04-19T16:53:01.268Z,80.10
2023-04-19T16:55:04.278Z,80.20
2023-04-19T16:57:06.873Z,80.30
2023-04-19T16:59:09.139Z,80.60
2023-04-19T17:01:11.087Z,81.00
2023-04-19T17:03:14.614Z,81.30
2023-04-19T17:05:16.777Z,81.70
2023-04-19T17:07:20.492Z,81.80
2023-04-19T17:09:22.574Z,82.10
2023-04-19T17:11:24.740Z,82.40
2023-04-19T17:13:26.893Z,82.40
2023-04-19T17:15:28.959Z,82.10
2023-04-19T17:17:31.144Z,82.10
2023-04-19T17:19:33.325Z,81.90
2023-04-19T17:21:36.166Z,81.90
2023-04-19T17:23:39.501Z,82.10
2023-04-19T17:25:41.554Z,82.80
2023-04-19T17:27:43.692Z,82.60
2023-04-19T17:29:46.006Z,82.80
2023-04-19T17:31:48.054Z,82.90
2023-04-19T17:33:50.355Z,82.90
2023-04-19T17:35:52.400Z,83.20
2023-04-19T17:37:55.421Z,82.80
2023-04-19T17:40:00.202Z,82.90
2023-04-19T17:42:02.335Z,82.60
2023-04-19T17:44:05.046Z,82.70
2023-04-19T17:46:07.382Z,82.70
2023-04-19T17:48:09.628Z,82.70
2023-04-19T17:50:13.414Z,82.80
2023-04-19T17:52:15.661Z,82.90
2023-04-19T17:54:18.824Z,83.20
2023-04-19T17:56:24.092Z,83.30
2023-04-19T17:58:26.517Z,83.60
2023-04-19T18:00:30.302Z,83.80
2023-04-19T18:02:32.453Z,83.90
2023-04-19T18:04:34.648Z,84.10
2023-04-19T18:06:37.094Z,83.90
2023-04-19T18:08:39.148Z,83.60
2023-04-19T18:10:41.163Z,83.40
2023-04-19T18:12:44.472Z,83.30
2023-04-19T18:14:46.500Z,83.60
2023-04-19T18:16:48.801Z,84.40
2023-04-19T18:18:51.358Z,83.50
2023-04-19T18:20:53.598Z,83.60
2023-04-19T18:22:55.775Z,83.60
2023-04-19T18:24:57.922Z,83.70
2023-04-19T18:27:00.381Z,83.60
2023-04-19T18:29:06.275Z,83.80
2023-04-19T18:31:09.278Z,83.80
2023-04-19T18:33:11.322Z,83.70
2023-04-19T18:35:13.515Z,83.70
2023-04-19T18:37:16.796Z,83.80
2023-04-19T18:39:19.042Z,83.80
2023-04-19T18:41:21.940Z,83.60
2023-04-19T18:43:24.772Z,83.80
2023-04-19T18:45:28.963Z,83.80
2023-04-19T18:47:31.109Z,83.90
2023-04-19T18:49:33.634Z,84.00
2023-04-19T18:51:36.941Z,84.00
2023-04-19T18:53:39.180Z,83.90
2023-04-19T18:55:41.273Z,84.00
2023-04-19T18:57:46.249Z,84.60
2023-04-19T18:59:48.231Z,84.20
2023-04-19T19:01:52.456Z,84.00
2023-04-19T19:04:23.560Z,84.20
2023-04-19T19:06:19.775Z,84.00
2023-04-19T19:08:22.392Z,84.10
2023-04-19T19:12:36.456Z,84.30
2023-04-19T19:14:38.997Z,84.30
2023-04-19T19:16:51.221Z,84.30
2023-04-19T19:18:55.905Z,85.00
2023-04-19T19:20:59.334Z,84.40
2023-04-19T19:23:03.074Z,84.40
2023-04-19T19:25:07.052Z,84.30
2023-04-19T19:27:09.439Z,84.60
2023-04-19T19:29:11.802Z,84.80
2023-04-19T19:31:13.837Z,85.20
2023-04-19T19:33:16.516Z,85.20
2023-04-19T19:35:19.828Z,85.30
2023-04-19T19:37:21.849Z,85.30
2023-04-19T19:39:23.916Z,85.50
2023-04-19T19:42:00.802Z,85.40
2023-04-19T19:43:47.905Z,85.50
2023-04-19T19:45:49.885Z,85.60
2023-04-19T19:47:52.378Z,86.30
2023-04-19T19:50:45.631Z,85.80
2023-04-19T19:52:18.489Z,86.00
2023-04-19T19:54:21.333Z,86.20
2023-04-19T19:56:24.541Z,86.40
2023-04-19T20:00:45.848Z,86.50
2023-04-19T20:04:54.334Z,86.90
2023-04-19T20:07:28.848Z,87.00
2023-04-19T20:09:20.364Z,87.50
2023-04-19T20:11:22.563Z,87.90
2023-04-19T20:13:24.594Z,87.90
2023-04-19T20:15:26.707Z,88.20
2023-04-19T20:17:28.941Z,88.40
2023-04-19T20:19:30.993Z,88.60
2023-04-19T20:21:33.199Z,88.80
2023-04-19T20:23:37.921Z,89.10
2023-04-19T20:25:41.627Z,89.30
2023-04-19T20:27:43.984Z,89.40
2023-04-19T20:29:46.045Z,89.80
2023-04-19T20:31:48.103Z,90.00
2023-04-19T20:33:52.531Z,90.20
2023-04-19T20:35:59.681Z,90.20
2023-04-19T20:38:07.610Z,90.30
2023-04-19T20:40:12.249Z,90.50
2023-04-19T20:42:16.233Z,90.60
2023-04-19T20:44:18.254Z,90.70
2023-04-19T20:46:20.354Z,90.70
2023-04-19T20:48:22.612Z,90.70
2023-04-19T20:50:24.569Z,90.50
2023-04-19T20:52:26.631Z,90.40
2023-04-19T20:54:29.057Z,90.10
2023-04-19T20:56:31.043Z,87.20
2023-04-19T20:58:35.058Z,86.90
2023-04-19T21:00:37.086Z,85.80
2023-04-19T21:02:39.138Z,84.30
2023-04-19T21:04:42.366Z,84.30
2023-04-19T21:06:44.423Z,82.80
2023-04-19T21:08:46.413Z,79.90
2023-04-19T21:10:48.513Z,78.80
2023-04-19T21:12:50.781Z,78.00
2023-04-19T21:14:57.253Z,77.20
2023-04-19T21:16:59.546Z,76.40
2023-04-19T21:19:01.537Z,76.00
2023-04-19T21:21:03.649Z,74.70
2023-04-19T21:23:05.962Z,74.80
2023-04-19T21:25:09.829Z,73.60
2023-04-19T21:27:11.816Z,73.40
2023-04-19T21:29:13.784Z,73.30
2023-04-19T21:31:17.194Z,72.80
2023-04-19T21:33:19.311Z,73.20
2023-04-19T21:35:26.790Z,73.20
2023-04-19T21:37:29.061Z,73.30
2023-04-19T21:39:31.026Z,73.10
2023-04-19T21:41:33.089Z,73.40
2023-04-19T21:43:36.604Z,73.60
2023-04-19T21:45:38.535Z,73.80
2023-04-19T21:47:42.227Z,74.10
2023-04-19T21:49:44.609Z,74.20
2023-04-19T21:51:46.716Z,74.00
2023-04-19T21:53:48.862Z,73.90
2023-04-19T21:55:51.056Z,74.00
2023-04-19T21:57:53.102Z,74.10
2023-04-19T21:59:55.371Z,73.80
2023-04-19T22:01:58.626Z,73.80
2023-04-19T22:04:02.231Z,73.90
2023-04-19T22:06:04.768Z,73.50
2023-04-19T22:08:07.418Z,73.60
2023-04-19T22:10:09.789Z,73.60
2023-04-19T22:12:13.280Z,73.10
2023-04-19T22:14:17.552Z,73.10
2023-04-19T22:16:19.589Z,73.30
2023-04-19T22:18:21.929Z,73.20
2023-04-19T22:20:25.790Z,73.40
2023-04-19T22:22:27.829Z,73.50
2023-04-19T22:24:29.811Z,73.30
2023-04-19T22:26:32.924Z,73.20
2023-04-19T22:28:35.874Z,73.20
2023-04-19T22:30:37.870Z,73.00
2023-04-19T22:32:41.056Z,73.20
2023-04-19T22:34:43.303Z,73.20
2023-04-19T22:36:46.846Z,73.40
2023-04-19T22:38:48.929Z,73.10
2023-04-19T22:40:50.900Z,73.10
2023-04-19T22:42:52.921Z,73.20
2023-04-19T22:44:54.846Z,73.40
2023-04-19T22:46:58.168Z,73.00
2023-04-19T22:49:00.689Z,73.20
2023-04-19T22:51:02.588Z,72.90
2023-04-19T22:53:06.391Z,73.00
2023-04-19T22:55:10.105Z,73.10
2023-04-19T22:57:12.218Z,73.40
2023-04-19T22:59:14.203Z,73.20
2023-04-19T23:01:16.252Z,73.50
2023-04-19T23:03:18.331Z,73.60
2023-04-19T23:05:20.457Z,73.30
2023-04-19T23:07:22.726Z,73.40
2023-04-19T23:09:26.112Z,73.40
2023-04-19T23:11:30.206Z,73.40
2023-04-19T23:13:32.147Z,73.70
2023-04-19T23:15:34.460Z,73.80
2023-04-19T23:17:39.277Z,73.80
2023-04-19T23:19:43.917Z,73.70
2023-04-19T23:21:46.088Z,73.80
2023-04-19T23:23:49.784Z,73.90
2023-04-19T23:25:53.280Z,73.90
2023-04-19T23:27:55.477Z,73.90
2023-04-19T23:29:57.432Z,73.80
2023-04-19T23:32:00.981Z,73.80
2023-04-19T23:34:03.057Z,74.00
2023-04-19T23:36:05.760Z,74.00
2023-04-19T23:38:07.802Z,74.10
2023-04-19T23:40:10.349Z,74.20
2023-04-19T23:42:14.252Z,74.40
2023-04-19T23:44:16.305Z,74.20
2023-04-19T23:46:18.639Z,74.30
2023-04-19T23:48:21.135Z,74.60
2023-04-19T23:50:23.283Z,74.50
2023-04-19T23:52:25.360Z,74.70
2023-04-19T23:54:27.518Z,74.80
2023-04-19T23:56:29.946Z,75.00
2023-04-19T23:58:33.254Z,75.00
